sensor_id;sensor_type;location;lat;lon;timestamp;temperature;humidity
8487;DHT22;4280;50.534;8.708;2024-02-16T00:00:26;9.20;1.00
8487;DHT22;4280;50.534;8.708;2024-02-16T00:02:56;9.20;1.00
8487;DHT22;4280;50.534;8.708;2024-02-16T00:05:21;9.30;1.00
8487;DHT22;4280;50.534;8.708;2024-02-16T00:07:47;9.30;1.00
8487;DHT22;4280;50.534;8.708;2024-02-16T00:10:13;9.30;1.00
8487;DHT22;4280;50.534;8.708;2024-02-16T00:12:39;9.30;1.00
8487;DHT22;4280;50.534;8.708;2024-02-16T00:15:06;9.30;1.00
8487;DHT22;4280;50.534;8.708;2024-02-16T00:17:32;9.40;1.00
8487;DHT22;4280;50.534;8.708;2024-02-16T00:19:59;9.30;1.00
8487;DHT22;4280;50.534;8.708;2024-02-16T00:22:25;9.30;1.00
8487;DHT22;4280;50.534;8.708;2024-02-16T00:24:51;9.30;1.00
8487;DHT22;4280;50.534;8.708;2024-02-16T00:27:17;9.30;1.00
8487;DHT22;4280;50.534;8.708;2024-02-16T00:29:43;9.30;1.00
8487;DHT22;4280;50.534;8.708;2024-02-16T00:32:09;9.30;1.00
8487;DHT22;4280;50.534;8.708;2024-02-16T00:34:36;9.30;1.00
8487;DHT22;4280;50.534;8.708;2024-02-16T00:37:03;9.30;1.00
8487;DHT22;4280;50.534;8.708;2024-02-16T00:39:36;9.30;1.00
8487;DHT22;4280;50.534;8.708;2024-02-16T00:42:02;9.30;1.00
8487;DHT22;4280;50.534;8.708;2024-02-16T00:44:28;9.30;1.00
8487;DHT22;4280;50.534;8.708;2024-02-16T00:46:54;9.30;1.00
8487;DHT22;4280;50.534;8.708;2024-02-16T00:49:20;9.30;1.00
8487;DHT22;4280;50.534;8.708;2024-02-16T00:51:45;9.30;1.00
8487;DHT22;4280;50.534;8.708;2024-02-16T00:54:11;9.40;1.00
8487;DHT22;4280;50.534;8.708;2024-02-16T00:56:37;9.40;1.00
8487;DHT22;4280;50.534;8.708;2024-02-16T00:59:04;9.30;1.00
8487;DHT22;4280;50.534;8.708;2024-02-16T01:01:30;9.40;1.00
8487;DHT22;4280;50.534;8.708;2024-02-16T01:03:56;9.40;1.00
8487;DHT22;4280;50.534;8.708;2024-02-16T01:06:21;9.40;1.00
8487;DHT22;4280;50.534;8.708;2024-02-16T01:08:47;9.50;1.00
8487;DHT22;4280;50.534;8.708;2024-02-16T01:11:13;9.60;1.00
8487;DHT22;4280;50.534;8.708;2024-02-16T01:13:39;9.60;1.00
8487;DHT22;4280;50.534;8.708;2024-02-16T01:16:06;9.50;1.00
8487;DHT22;4280;50.534;8.708;2024-02-16T01:18:32;9.60;1.00
8487;DHT22;4280;50.534;8.708;2024-02-16T01:20:58;9.70;1.00
8487;DHT22;4280;50.534;8.708;2024-02-16T01:23:24;9.70;1.00
8487;DHT22;4280;50.534;8.708;2024-02-16T01:25:50;9.70;1.00
8487;DHT22;4280;50.534;8.708;2024-02-16T01:28:16;9.80;1.00
8487;DHT22;4280;50.534;8.708;2024-02-16T01:30:41;9.80;1.00
8487;DHT22;4280;50.534;8.708;2024-02-16T01:33:07;9.80;1.00
8487;DHT22;4280;50.534;8.708;2024-02-16T01:35:33;9.80;1.00
8487;DHT22;4280;50.534;8.708;2024-02-16T01:38:00;9.80;1.00
8487;DHT22;4280;50.534;8.708;2024-02-16T01:40:27;9.90;1.00
8487;DHT22;4280;50.534;8.708;2024-02-16T01:42:53;9.80;1.00
8487;DHT22;4280;50.534;8.708;2024-02-16T01:45:19;9.80;1.00
8487;DHT22;4280;50.534;8.708;2024-02-16T01:47:50;9.80;1.00
8487;DHT22;4280;50.534;8.708;2024-02-16T01:50:17;9.70;1.00
8487;DHT22;4280;50.534;8.708;2024-02-16T01:52:46;9.70;1.00
8487;DHT22;4280;50.534;8.708;2024-02-16T01:55:13;9.80;1.00
8487;DHT22;4280;50.534;8.708;2024-02-16T01:57:40;9.70;1.00
8487;DHT22;4280;50.534;8.708;2024-02-16T02:00:09;9.70;1.00
8487;DHT22;4280;50.534;8.708;2024-02-16T02:02:35;9.70;1.00
8487;DHT22;4280;50.534;8.708;2024-02-16T02:05:02;9.60;1.00
8487;DHT22;4280;50.534;8.708;2024-02-16T02:07:29;9.60;1.00
8487;DHT22;4280;50.534;8.708;2024-02-16T02:09:56;9.60;1.00
8487;DHT22;4280;50.534;8.708;2024-02-16T02:12:22;9.60;1.00
8487;DHT22;4280;50.534;8.708;2024-02-16T02:14:48;9.60;1.00
8487;DHT22;4280;50.534;8.708;2024-02-16T02:17:15;9.50;1.00
8487;DHT22;4280;50.534;8.708;2024-02-16T02:19:41;9.50;1.00
8487;DHT22;4280;50.534;8.708;2024-02-16T02:22:14;9.40;1.00
8487;DHT22;4280;50.534;8.708;2024-02-16T02:24:41;9.30;1.00
8487;DHT22;4280;50.534;8.708;2024-02-16T02:27:06;9.30;1.00
8487;DHT22;4280;50.534;8.708;2024-02-16T02:29:32;9.40;1.00
8487;DHT22;4280;50.534;8.708;2024-02-16T02:31:59;9.40;1.00
8487;DHT22;4280;50.534;8.708;2024-02-16T02:34:24;9.30;1.00
8487;DHT22;4280;50.534;8.708;2024-02-16T02:36:50;9.30;1.00
8487;DHT22;4280;50.534;8.708;2024-02-16T02:39:16;9.30;1.00
8487;DHT22;4280;50.534;8.708;2024-02-16T02:41:41;9.20;1.00
8487;DHT22;4280;50.534;8.708;2024-02-16T02:44:08;9.20;1.00
8487;DHT22;4280;50.534;8.708;2024-02-16T02:46:34;9.20;1.00
8487;DHT22;4280;50.534;8.708;2024-02-16T02:49:00;9.10;1.00
8487;DHT22;4280;50.534;8.708;2024-02-16T02:51:27;9.10;1.00
8487;DHT22;4280;50.534;8.708;2024-02-16T02:53:53;9.20;1.00
8487;DHT22;4280;50.534;8.708;2024-02-16T02:56:18;9.30;1.00
8487;DHT22;4280;50.534;8.708;2024-02-16T02:58:44;9.30;1.00
8487;DHT22;4280;50.534;8.708;2024-02-16T03:01:11;9.20;1.00
8487;DHT22;4280;50.534;8.708;2024-02-16T03:03:38;9.10;1.00
8487;DHT22;4280;50.534;8.708;2024-02-16T03:06:05;9.10;1.00
8487;DHT22;4280;50.534;8.708;2024-02-16T03:08:32;9.10;1.00
8487;DHT22;4280;50.534;8.708;2024-02-16T03:10:58;9.20;1.00
8487;DHT22;4280;50.534;8.708;2024-02-16T03:13:26;9.10;1.00
8487;DHT22;4280;50.534;8.708;2024-02-16T03:15:52;9.20;1.00
8487;DHT22;4280;50.534;8.708;2024-02-16T03:18:19;9.10;1.00
8487;DHT22;4280;50.534;8.708;2024-02-16T03:20:45;9.20;1.00
8487;DHT22;4280;50.534;8.708;2024-02-16T03:23:14;9.20;1.00
8487;DHT22;4280;50.534;8.708;2024-02-16T03:25:40;9.20;1.00
8487;DHT22;4280;50.534;8.708;2024-02-16T03:28:09;9.20;1.00
8487;DHT22;4280;50.534;8.708;2024-02-16T03:30:35;9.30;1.00
8487;DHT22;4280;50.534;8.708;2024-02-16T03:33:01;9.40;1.00
8487;DHT22;4280;50.534;8.708;2024-02-16T03:35:27;9.50;1.00
8487;DHT22;4280;50.534;8.708;2024-02-16T03:37:53;9.40;1.00
8487;DHT22;4280;50.534;8.708;2024-02-16T03:40:19;9.40;1.00
8487;DHT22;4280;50.534;8.708;2024-02-16T03:42:44;9.40;1.00
8487;DHT22;4280;50.534;8.708;2024-02-16T03:45:10;9.40;1.00
8487;DHT22;4280;50.534;8.708;2024-02-16T03:47:36;9.40;1.00
8487;DHT22;4280;50.534;8.708;2024-02-16T03:50:05;9.50;1.00
8487;DHT22;4280;50.534;8.708;2024-02-16T03:52:32;9.50;1.00
8487;DHT22;4280;50.534;8.708;2024-02-16T03:54:58;9.50;1.00
8487;DHT22;4280;50.534;8.708;2024-02-16T03:57:23;9.60;1.00
8487;DHT22;4280;50.534;8.708;2024-02-16T03:59:49;9.60;1.00
8487;DHT22;4280;50.534;8.708;2024-02-16T04:02:15;9.70;1.00
8487;DHT22;4280;50.534;8.708;2024-02-16T04:04:41;9.70;1.00
8487;DHT22;4280;50.534;8.708;2024-02-16T04:07:07;9.60;1.00
8487;DHT22;4280;50.534;8.708;2024-02-16T04:09:36;9.50;1.00
8487;DHT22;4280;50.534;8.708;2024-02-16T04:12:02;9.40;1.00
8487;DHT22;4280;50.534;8.708;2024-02-16T04:14:32;9.40;1.00
8487;DHT22;4280;50.534;8.708;2024-02-16T04:16:59;9.50;1.00
8487;DHT22;4280;50.534;8.708;2024-02-16T04:19:28;9.50;1.00
8487;DHT22;4280;50.534;8.708;2024-02-16T04:21:55;9.50;1.00
8487;DHT22;4280;50.534;8.708;2024-02-16T04:24:20;9.50;1.00
8487;DHT22;4280;50.534;8.708;2024-02-16T04:26:46;9.50;1.00
8487;DHT22;4280;50.534;8.708;2024-02-16T04:29:12;9.50;1.00
8487;DHT22;4280;50.534;8.708;2024-02-16T04:31:41;9.50;1.00
8487;DHT22;4280;50.534;8.708;2024-02-16T04:34:08;9.40;1.00
8487;DHT22;4280;50.534;8.708;2024-02-16T04:36:34;9.40;1.00
8487;DHT22;4280;50.534;8.708;2024-02-16T04:39:00;9.40;1.00
8487;DHT22;4280;50.534;8.708;2024-02-16T04:41:26;9.40;1.00
8487;DHT22;4280;50.534;8.708;2024-02-16T04:43:52;9.50;1.00
8487;DHT22;4280;50.534;8.708;2024-02-16T04:46:18;9.50;1.00
8487;DHT22;4280;50.534;8.708;2024-02-16T04:48:44;9.50;1.00
8487;DHT22;4280;50.534;8.708;2024-02-16T04:51:11;9.50;1.00
8487;DHT22;4280;50.534;8.708;2024-02-16T04:53:36;9.40;1.00
8487;DHT22;4280;50.534;8.708;2024-02-16T04:56:02;9.40;1.00
8487;DHT22;4280;50.534;8.708;2024-02-16T04:58:28;9.40;1.00
8487;DHT22;4280;50.534;8.708;2024-02-16T05:00:54;9.40;1.00
8487;DHT22;4280;50.534;8.708;2024-02-16T05:03:20;9.40;1.00
8487;DHT22;4280;50.534;8.708;2024-02-16T05:05:46;9.40;1.00
8487;DHT22;4280;50.534;8.708;2024-02-16T05:08:11;9.40;1.00
8487;DHT22;4280;50.534;8.708;2024-02-16T05:10:37;9.40;1.00
8487;DHT22;4280;50.534;8.708;2024-02-16T05:13:04;9.40;1.00
8487;DHT22;4280;50.534;8.708;2024-02-16T05:15:30;9.30;1.00
8487;DHT22;4280;50.534;8.708;2024-02-16T05:17:56;9.40;1.00
8487;DHT22;4280;50.534;8.708;2024-02-16T05:20:23;9.40;1.00
8487;DHT22;4280;50.534;8.708;2024-02-16T05:22:48;9.40;1.00
8487;DHT22;4280;50.534;8.708;2024-02-16T05:25:18;9.50;1.00
8487;DHT22;4280;50.534;8.708;2024-02-16T05:27:44;9.40;1.00
8487;DHT22;4280;50.534;8.708;2024-02-16T05:30:11;9.40;1.00
8487;DHT22;4280;50.534;8.708;2024-02-16T05:32:42;9.40;1.00
8487;DHT22;4280;50.534;8.708;2024-02-16T05:35:09;9.40;1.00
8487;DHT22;4280;50.534;8.708;2024-02-16T05:37:43;9.50;1.00
8487;DHT22;4280;50.534;8.708;2024-02-16T05:40:17;9.50;1.00
8487;DHT22;4280;50.534;8.708;2024-02-16T05:42:54;9.40;1.00
8487;DHT22;4280;50.534;8.708;2024-02-16T05:45:23;9.40;1.00
8487;DHT22;4280;50.534;8.708;2024-02-16T05:47:49;9.40;1.00
8487;DHT22;4280;50.534;8.708;2024-02-16T05:50:16;9.50;1.00
8487;DHT22;4280;50.534;8.708;2024-02-16T05:52:42;9.50;1.00
8487;DHT22;4280;50.534;8.708;2024-02-16T05:55:10;9.50;1.00
8487;DHT22;4280;50.534;8.708;2024-02-16T05:57:37;9.50;1.00
8487;DHT22;4280;50.534;8.708;2024-02-16T06:00:04;9.50;1.00
8487;DHT22;4280;50.534;8.708;2024-02-16T06:02:32;9.50;1.00
8487;DHT22;4280;50.534;8.708;2024-02-16T06:04:59;9.50;1.00
8487;DHT22;4280;50.534;8.708;2024-02-16T06:07:25;9.50;1.00
8487;DHT22;4280;50.534;8.708;2024-02-16T06:09:51;9.40;1.00
8487;DHT22;4280;50.534;8.708;2024-02-16T06:12:17;9.50;1.00
8487;DHT22;4280;50.534;8.708;2024-02-16T06:14:43;9.40;1.00
8487;DHT22;4280;50.534;8.708;2024-02-16T06:17:21;9.40;1.00
8487;DHT22;4280;50.534;8.708;2024-02-16T06:19:46;9.30;1.00
8487;DHT22;4280;50.534;8.708;2024-02-16T06:22:13;9.30;1.00
8487;DHT22;4280;50.534;8.708;2024-02-16T06:24:39;9.20;1.00
8487;DHT22;4280;50.534;8.708;2024-02-16T06:27:05;9.20;1.00
8487;DHT22;4280;50.534;8.708;2024-02-16T06:29:31;9.20;1.00
8487;DHT22;4280;50.534;8.708;2024-02-16T06:31:57;9.20;1.00
8487;DHT22;4280;50.534;8.708;2024-02-16T06:34:22;9.20;1.00
8487;DHT22;4280;50.534;8.708;2024-02-16T06:36:48;9.20;1.00
8487;DHT22;4280;50.534;8.708;2024-02-16T06:39:15;9.20;1.00
8487;DHT22;4280;50.534;8.708;2024-02-16T06:41:46;9.10;1.00
8487;DHT22;4280;50.534;8.708;2024-02-16T06:44:12;9.00;1.00
8487;DHT22;4280;50.534;8.708;2024-02-16T06:46:39;9.00;1.00
8487;DHT22;4280;50.534;8.708;2024-02-16T06:49:04;8.90;1.00
8487;DHT22;4280;50.534;8.708;2024-02-16T06:51:30;8.90;1.00
8487;DHT22;4280;50.534;8.708;2024-02-16T06:53:56;8.80;1.00
8487;DHT22;4280;50.534;8.708;2024-02-16T06:56:21;8.90;1.00
8487;DHT22;4280;50.534;8.708;2024-02-16T06:58:47;8.90;1.00
8487;DHT22;4280;50.534;8.708;2024-02-16T07:01:14;9.10;1.00
8487;DHT22;4280;50.534;8.708;2024-02-16T07:03:40;9.10;1.00
8487;DHT22;4280;50.534;8.708;2024-02-16T07:06:06;9.10;1.00
8487;DHT22;4280;50.534;8.708;2024-02-16T07:08:36;9.00;1.00
8487;DHT22;4280;50.534;8.708;2024-02-16T07:11:03;9.10;1.00
8487;DHT22;4280;50.534;8.708;2024-02-16T07:13:31;9.10;1.00
8487;DHT22;4280;50.534;8.708;2024-02-16T07:15:57;9.20;1.00
8487;DHT22;4280;50.534;8.708;2024-02-16T07:18:22;9.20;1.00
8487;DHT22;4280;50.534;8.708;2024-02-16T07:20:48;9.30;1.00
8487;DHT22;4280;50.534;8.708;2024-02-16T07:23:14;9.50;1.00
8487;DHT22;4280;50.534;8.708;2024-02-16T07:25:41;9.60;1.00
8487;DHT22;4280;50.534;8.708;2024-02-16T07:28:07;9.60;1.00
8487;DHT22;4280;50.534;8.708;2024-02-16T07:30:34;9.70;1.00
8487;DHT22;4280;50.534;8.708;2024-02-16T07:33:06;9.90;1.00
8487;DHT22;4280;50.534;8.708;2024-02-16T07:35:35;10.00;1.00
8487;DHT22;4280;50.534;8.708;2024-02-16T07:38:01;10.10;1.00
8487;DHT22;4280;50.534;8.708;2024-02-16T07:40:28;10.20;1.00
8487;DHT22;4280;50.534;8.708;2024-02-16T07:42:54;10.30;1.00
8487;DHT22;4280;50.534;8.708;2024-02-16T07:45:20;10.40;1.00
8487;DHT22;4280;50.534;8.708;2024-02-16T07:47:46;10.50;1.00
8487;DHT22;4280;50.534;8.708;2024-02-16T07:50:12;10.60;1.00
8487;DHT22;4280;50.534;8.708;2024-02-16T07:52:38;10.60;1.00
8487;DHT22;4280;50.534;8.708;2024-02-16T07:55:05;10.80;1.00
8487;DHT22;4280;50.534;8.708;2024-02-16T07:57:31;11.00;1.00
8487;DHT22;4280;50.534;8.708;2024-02-16T07:59:57;11.10;1.00
8487;DHT22;4280;50.534;8.708;2024-02-16T08:02:23;11.10;1.00
8487;DHT22;4280;50.534;8.708;2024-02-16T08:04:49;11.20;1.00
8487;DHT22;4280;50.534;8.708;2024-02-16T08:07:15;11.30;1.00
8487;DHT22;4280;50.534;8.708;2024-02-16T08:09:44;11.40;1.00
8487;DHT22;4280;50.534;8.708;2024-02-16T08:12:10;11.50;1.00
8487;DHT22;4280;50.534;8.708;2024-02-16T08:14:40;11.50;1.00
8487;DHT22;4280;50.534;8.708;2024-02-16T08:17:07;11.40;1.00
8487;DHT22;4280;50.534;8.708;2024-02-16T08:19:34;11.40;1.00
8487;DHT22;4280;50.534;8.708;2024-02-16T08:22:02;11.40;1.00
8487;DHT22;4280;50.534;8.708;2024-02-16T08:24:31;11.40;1.00
8487;DHT22;4280;50.534;8.708;2024-02-16T08:27:00;11.40;1.00
8487;DHT22;4280;50.534;8.708;2024-02-16T08:29:25;11.40;1.00
8487;DHT22;4280;50.534;8.708;2024-02-16T08:31:52;11.50;1.00
8487;DHT22;4280;50.534;8.708;2024-02-16T08:34:19;11.50;1.00
8487;DHT22;4280;50.534;8.708;2024-02-16T08:36:49;11.60;1.00
8487;DHT22;4280;50.534;8.708;2024-02-16T08:39:16;11.70;1.00
8487;DHT22;4280;50.534;8.708;2024-02-16T08:41:42;11.70;1.00
8487;DHT22;4280;50.534;8.708;2024-02-16T08:44:13;11.90;1.00
8487;DHT22;4280;50.534;8.708;2024-02-16T08:46:40;11.90;1.00
8487;DHT22;4280;50.534;8.708;2024-02-16T08:49:06;11.90;1.00
8487;DHT22;4280;50.534;8.708;2024-02-16T08:51:32;11.90;1.00
8487;DHT22;4280;50.534;8.708;2024-02-16T08:53:59;12.00;1.00
8487;DHT22;4280;50.534;8.708;2024-02-16T08:56:25;11.90;1.00
8487;DHT22;4280;50.534;8.708;2024-02-16T08:58:51;11.80;1.00
8487;DHT22;4280;50.534;8.708;2024-02-16T09:01:16;11.80;1.00
8487;DHT22;4280;50.534;8.708;2024-02-16T09:03:42;11.80;1.00
8487;DHT22;4280;50.534;8.708;2024-02-16T09:06:08;11.90;1.00
8487;DHT22;4280;50.534;8.708;2024-02-16T09:08:34;11.90;1.00
8487;DHT22;4280;50.534;8.708;2024-02-16T09:11:04;11.90;1.00
8487;DHT22;4280;50.534;8.708;2024-02-16T09:13:35;11.90;1.00
8487;DHT22;4280;50.534;8.708;2024-02-16T09:16:02;12.00;1.00
8487;DHT22;4280;50.534;8.708;2024-02-16T09:18:29;12.00;1.00
8487;DHT22;4280;50.534;8.708;2024-02-16T09:20:55;12.00;1.00
8487;DHT22;4280;50.534;8.708;2024-02-16T09:23:21;12.00;1.00
8487;DHT22;4280;50.534;8.708;2024-02-16T09:25:46;12.00;1.00
8487;DHT22;4280;50.534;8.708;2024-02-16T09:28:14;12.10;1.00
8487;DHT22;4280;50.534;8.708;2024-02-16T09:30:39;12.00;1.00
8487;DHT22;4280;50.534;8.708;2024-02-16T09:33:05;12.10;1.00
8487;DHT22;4280;50.534;8.708;2024-02-16T09:35:32;12.00;1.00
8487;DHT22;4280;50.534;8.708;2024-02-16T09:37:58;12.10;1.00
8487;DHT22;4280;50.534;8.708;2024-02-16T09:40:24;12.10;1.00
8487;DHT22;4280;50.534;8.708;2024-02-16T09:42:50;12.10;1.00
8487;DHT22;4280;50.534;8.708;2024-02-16T09:45:16;12.20;1.00
8487;DHT22;4280;50.534;8.708;2024-02-16T09:47:45;12.20;1.00
8487;DHT22;4280;50.534;8.708;2024-02-16T09:50:15;12.50;1.00
8487;DHT22;4280;50.534;8.708;2024-02-16T09:52:41;12.50;1.00
8487;DHT22;4280;50.534;8.708;2024-02-16T09:55:13;12.50;1.00
8487;DHT22;4280;50.534;8.708;2024-02-16T09:57:39;12.40;1.00
8487;DHT22;4280;50.534;8.708;2024-02-16T10:00:06;12.50;1.00
8487;DHT22;4280;50.534;8.708;2024-02-16T10:02:45;12.50;1.00
8487;DHT22;4280;50.534;8.708;2024-02-16T10:05:15;12.70;1.00
8487;DHT22;4280;50.534;8.708;2024-02-16T10:07:47;12.70;1.00
8487;DHT22;4280;50.534;8.708;2024-02-16T10:10:23;12.70;1.00
8487;DHT22;4280;50.534;8.708;2024-02-16T10:13:11;12.90;1.00
8487;DHT22;4280;50.534;8.708;2024-02-16T10:15:37;13.00;1.00
8487;DHT22;4280;50.534;8.708;2024-02-16T10:18:04;13.00;1.00
8487;DHT22;4280;50.534;8.708;2024-02-16T10:20:34;13.00;1.00
8487;DHT22;4280;50.534;8.708;2024-02-16T10:25:34;13.10;1.00
8487;DHT22;4280;50.534;8.708;2024-02-16T10:28:04;13.20;1.00
8487;DHT22;4280;50.534;8.708;2024-02-16T10:30:35;13.10;1.00
8487;DHT22;4280;50.534;8.708;2024-02-16T10:33:06;13.20;1.00
8487;DHT22;4280;50.534;8.708;2024-02-16T10:35:38;13.20;1.00
8487;DHT22;4280;50.534;8.708;2024-02-16T10:38:06;13.20;1.00
8487;DHT22;4280;50.534;8.708;2024-02-16T10:40:40;13.20;1.00
8487;DHT22;4280;50.534;8.708;2024-02-16T10:43:07;13.30;1.00
8487;DHT22;4280;50.534;8.708;2024-02-16T10:45:38;13.40;1.00
8487;DHT22;4280;50.534;8.708;2024-02-16T10:48:05;13.40;1.00
8487;DHT22;4280;50.534;8.708;2024-02-16T10:50:33;13.20;1.00
8487;DHT22;4280;50.534;8.708;2024-02-16T10:53:06;13.20;1.00
8487;DHT22;4280;50.534;8.708;2024-02-16T10:55:35;13.20;1.00
8487;DHT22;4280;50.534;8.708;2024-02-16T10:58:01;13.20;1.00
8487;DHT22;4280;50.534;8.708;2024-02-16T11:00:27;13.30;1.00
8487;DHT22;4280;50.534;8.708;2024-02-16T11:02:57;13.50;1.00
8487;DHT22;4280;50.534;8.708;2024-02-16T11:05:36;13.50;1.00
8487;DHT22;4280;50.534;8.708;2024-02-16T11:08:12;13.60;1.00
8487;DHT22;4280;50.534;8.708;2024-02-16T11:10:39;13.60;1.00
8487;DHT22;4280;50.534;8.708;2024-02-16T11:13:05;13.50;1.00
8487;DHT22;4280;50.534;8.708;2024-02-16T11:15:35;13.50;1.00
8487;DHT22;4280;50.534;8.708;2024-02-16T11:18:03;13.50;1.00
8487;DHT22;4280;50.534;8.708;2024-02-16T11:20:36;13.60;1.00
8487;DHT22;4280;50.534;8.708;2024-02-16T11:23:09;13.60;1.00
8487;DHT22;4280;50.534;8.708;2024-02-16T11:25:36;13.70;1.00
8487;DHT22;4280;50.534;8.708;2024-02-16T11:28:02;13.60;1.00
8487;DHT22;4280;50.534;8.708;2024-02-16T11:30:34;13.70;1.00
8487;DHT22;4280;50.534;8.708;2024-02-16T11:33:03;13.70;1.00
8487;DHT22;4280;50.534;8.708;2024-02-16T11:35:30;13.80;1.00
8487;DHT22;4280;50.534;8.708;2024-02-16T11:37:56;13.80;1.00
8487;DHT22;4280;50.534;8.708;2024-02-16T11:40:22;13.80;1.00
8487;DHT22;4280;50.534;8.708;2024-02-16T11:42:48;13.90;1.00
8487;DHT22;4280;50.534;8.708;2024-02-16T11:45:13;14.00;1.00
8487;DHT22;4280;50.534;8.708;2024-02-16T11:47:41;14.00;1.00
8487;DHT22;4280;50.534;8.708;2024-02-16T11:50:10;14.00;1.00
8487;DHT22;4280;50.534;8.708;2024-02-16T11:52:40;14.00;1.00
8487;DHT22;4280;50.534;8.708;2024-02-16T11:55:10;14.10;1.00
8487;DHT22;4280;50.534;8.708;2024-02-16T11:57:38;14.30;1.00
8487;DHT22;4280;50.534;8.708;2024-02-16T12:00:05;14.30;1.00
8487;DHT22;4280;50.534;8.708;2024-02-16T12:02:36;14.40;1.00
8487;DHT22;4280;50.534;8.708;2024-02-16T12:05:02;14.50;1.00
8487;DHT22;4280;50.534;8.708;2024-02-16T12:07:28;14.50;1.00
8487;DHT22;4280;50.534;8.708;2024-02-16T12:09:59;14.50;1.00
8487;DHT22;4280;50.534;8.708;2024-02-16T12:12:27;14.70;1.00
8487;DHT22;4280;50.534;8.708;2024-02-16T12:14:56;14.50;1.00
8487;DHT22;4280;50.534;8.708;2024-02-16T12:17:22;14.60;1.00
8487;DHT22;4280;50.534;8.708;2024-02-16T12:19:49;14.60;1.00
8487;DHT22;4280;50.534;8.708;2024-02-16T12:22:17;14.70;1.00
8487;DHT22;4280;50.534;8.708;2024-02-16T12:24:45;14.70;1.00
8487;DHT22;4280;50.534;8.708;2024-02-16T12:27:11;14.70;1.00
8487;DHT22;4280;50.534;8.708;2024-02-16T12:29:38;14.60;1.00
8487;DHT22;4280;50.534;8.708;2024-02-16T12:32:04;14.40;1.00
8487;DHT22;4280;50.534;8.708;2024-02-16T12:34:31;14.50;1.00
8487;DHT22;4280;50.534;8.708;2024-02-16T12:36:56;14.50;1.00
8487;DHT22;4280;50.534;8.708;2024-02-16T12:39:22;14.40;1.00
8487;DHT22;4280;50.534;8.708;2024-02-16T12:41:48;14.50;1.00
8487;DHT22;4280;50.534;8.708;2024-02-16T12:44:14;14.40;1.00
8487;DHT22;4280;50.534;8.708;2024-02-16T12:46:40;14.50;1.00
8487;DHT22;4280;50.534;8.708;2024-02-16T12:49:08;14.50;1.00
8487;DHT22;4280;50.534;8.708;2024-02-16T12:51:34;14.50;1.00
8487;DHT22;4280;50.534;8.708;2024-02-16T12:54:00;14.60;1.00
8487;DHT22;4280;50.534;8.708;2024-02-16T12:56:29;14.70;1.00
8487;DHT22;4280;50.534;8.708;2024-02-16T12:58:55;14.80;1.00
8487;DHT22;4280;50.534;8.708;2024-02-16T13:01:22;14.80;1.00
8487;DHT22;4280;50.534;8.708;2024-02-16T13:03:48;14.90;1.00
8487;DHT22;4280;50.534;8.708;2024-02-16T13:06:13;15.00;1.00
8487;DHT22;4280;50.534;8.708;2024-02-16T13:08:39;14.90;1.00
8487;DHT22;4280;50.534;8.708;2024-02-16T13:11:05;15.00;1.00
8487;DHT22;4280;50.534;8.708;2024-02-16T13:13:31;15.10;1.00
8487;DHT22;4280;50.534;8.708;2024-02-16T13:15:57;15.10;1.00
8487;DHT22;4280;50.534;8.708;2024-02-16T13:18:24;15.00;1.00
8487;DHT22;4280;50.534;8.708;2024-02-16T13:20:50;14.90;1.00
8487;DHT22;4280;50.534;8.708;2024-02-16T13:23:16;14.80;1.00
8487;DHT22;4280;50.534;8.708;2024-02-16T13:25:41;14.80;1.00
8487;DHT22;4280;50.534;8.708;2024-02-16T13:28:07;14.70;1.00
8487;DHT22;4280;50.534;8.708;2024-02-16T13:30:33;14.70;1.00
8487;DHT22;4280;50.534;8.708;2024-02-16T13:32:59;14.80;1.00
8487;DHT22;4280;50.534;8.708;2024-02-16T13:35:25;14.80;1.00
8487;DHT22;4280;50.534;8.708;2024-02-16T13:37:51;14.80;1.00
8487;DHT22;4280;50.534;8.708;2024-02-16T13:40:17;14.90;1.00
8487;DHT22;4280;50.534;8.708;2024-02-16T13:42:43;14.90;1.00
8487;DHT22;4280;50.534;8.708;2024-02-16T13:45:09;15.00;1.00
8487;DHT22;4280;50.534;8.708;2024-02-16T13:47:36;15.00;1.00
8487;DHT22;4280;50.534;8.708;2024-02-16T13:50:06;15.00;1.00
8487;DHT22;4280;50.534;8.708;2024-02-16T13:52:32;15.00;1.00
8487;DHT22;4280;50.534;8.708;2024-02-16T13:54:58;14.90;1.00
8487;DHT22;4280;50.534;8.708;2024-02-16T13:57:23;14.70;1.00
8487;DHT22;4280;50.534;8.708;2024-02-16T13:59:49;14.60;1.00
8487;DHT22;4280;50.534;8.708;2024-02-16T14:02:15;14.70;1.00
8487;DHT22;4280;50.534;8.708;2024-02-16T14:04:41;14.50;1.00
8487;DHT22;4280;50.534;8.708;2024-02-16T14:07:07;14.50;1.00
8487;DHT22;4280;50.534;8.708;2024-02-16T14:09:33;14.50;1.00
8487;DHT22;4280;50.534;8.708;2024-02-16T14:11:58;14.40;1.00
8487;DHT22;4280;50.534;8.708;2024-02-16T14:14:25;14.40;1.00
8487;DHT22;4280;50.534;8.708;2024-02-16T14:16:51;14.40;1.00
8487;DHT22;4280;50.534;8.708;2024-02-16T14:19:17;14.40;1.00
8487;DHT22;4280;50.534;8.708;2024-02-16T14:21:43;14.50;1.00
8487;DHT22;4280;50.534;8.708;2024-02-16T14:24:09;14.50;1.00
8487;DHT22;4280;50.534;8.708;2024-02-16T14:26:36;14.60;1.00
8487;DHT22;4280;50.534;8.708;2024-02-16T14:29:04;14.70;1.00
8487;DHT22;4280;50.534;8.708;2024-02-16T14:31:30;14.60;1.00
8487;DHT22;4280;50.534;8.708;2024-02-16T14:33:55;14.70;1.00
8487;DHT22;4280;50.534;8.708;2024-02-16T14:36:21;14.60;1.00
8487;DHT22;4280;50.534;8.708;2024-02-16T14:38:47;14.50;1.00
8487;DHT22;4280;50.534;8.708;2024-02-16T14:41:13;14.60;1.00
8487;DHT22;4280;50.534;8.708;2024-02-16T14:43:41;14.50;1.00
8487;DHT22;4280;50.534;8.708;2024-02-16T14:46:08;14.50;1.00
8487;DHT22;4280;50.534;8.708;2024-02-16T14:48:34;14.40;1.00
8487;DHT22;4280;50.534;8.708;2024-02-16T14:51:00;14.40;1.00
8487;DHT22;4280;50.534;8.708;2024-02-16T14:53:27;14.30;1.00
8487;DHT22;4280;50.534;8.708;2024-02-16T14:55:55;14.30;1.00
8487;DHT22;4280;50.534;8.708;2024-02-16T14:58:21;14.30;1.00
8487;DHT22;4280;50.534;8.708;2024-02-16T15:00:47;14.30;1.00
8487;DHT22;4280;50.534;8.708;2024-02-16T15:03:13;14.30;1.00
8487;DHT22;4280;50.534;8.708;2024-02-16T15:05:39;14.30;1.00
8487;DHT22;4280;50.534;8.708;2024-02-16T15:08:06;14.40;1.00
8487;DHT22;4280;50.534;8.708;2024-02-16T15:10:32;14.30;1.00
8487;DHT22;4280;50.534;8.708;2024-02-16T15:12:57;14.30;1.00
8487;DHT22;4280;50.534;8.708;2024-02-16T15:15:23;14.20;1.00
8487;DHT22;4280;50.534;8.708;2024-02-16T15:17:49;14.20;1.00
8487;DHT22;4280;50.534;8.708;2024-02-16T15:20:15;14.20;1.00
8487;DHT22;4280;50.534;8.708;2024-02-16T15:22:40;14.30;1.00
8487;DHT22;4280;50.534;8.708;2024-02-16T15:25:08;14.30;1.00
8487;DHT22;4280;50.534;8.708;2024-02-16T15:27:34;14.30;1.00
8487;DHT22;4280;50.534;8.708;2024-02-16T15:30:01;14.30;1.00
8487;DHT22;4280;50.534;8.708;2024-02-16T15:32:27;14.20;1.00
8487;DHT22;4280;50.534;8.708;2024-02-16T15:34:54;14.20;1.00
8487;DHT22;4280;50.534;8.708;2024-02-16T15:37:20;14.20;1.00
8487;DHT22;4280;50.534;8.708;2024-02-16T15:39:48;14.10;1.00
8487;DHT22;4280;50.534;8.708;2024-02-16T15:42:18;14.10;1.00
8487;DHT22;4280;50.534;8.708;2024-02-16T15:44:44;14.10;1.00
8487;DHT22;4280;50.534;8.708;2024-02-16T15:47:10;14.00;1.00
8487;DHT22;4280;50.534;8.708;2024-02-16T15:49:38;14.00;1.00
8487;DHT22;4280;50.534;8.708;2024-02-16T15:52:04;14.00;1.00
8487;DHT22;4280;50.534;8.708;2024-02-16T15:54:30;14.00;1.00
8487;DHT22;4280;50.534;8.708;2024-02-16T15:56:56;13.90;1.00
8487;DHT22;4280;50.534;8.708;2024-02-16T15:59:21;13.90;1.00
8487;DHT22;4280;50.534;8.708;2024-02-16T16:01:47;13.90;1.00
8487;DHT22;4280;50.534;8.708;2024-02-16T16:04:13;14.00;1.00
8487;DHT22;4280;50.534;8.708;2024-02-16T16:06:39;14.00;1.00
8487;DHT22;4280;50.534;8.708;2024-02-16T16:09:05;13.90;1.00
8487;DHT22;4280;50.534;8.708;2024-02-16T16:11:34;13.90;1.00
8487;DHT22;4280;50.534;8.708;2024-02-16T16:14:00;13.80;1.00
8487;DHT22;4280;50.534;8.708;2024-02-16T16:16:26;13.80;1.00
8487;DHT22;4280;50.534;8.708;2024-02-16T16:18:51;13.80;1.00
8487;DHT22;4280;50.534;8.708;2024-02-16T16:21:23;13.70;1.00
8487;DHT22;4280;50.534;8.708;2024-02-16T16:23:49;13.70;1.00